Time;durP1;ratioP1;P1;durP2;ratioP2;P2;SDS_P1;SDS_P2;PMS_P1;PMS_P2;Temp;Humidity;BMP_temperature;BMP_pressure;BME280_temperature;BME280_humidity;BME280_pressure;Samples;Min_cycle;Max_cycle;Signal;HPM_P1;HPM_P2
2024/03/17 00:01:12;;;;;;;0.08;0.00;;;;;;;14.39;56.63;100124.78;4463738;31;32236;-84
2024/03/17 00:03:39;;;;;;;0.28;0.28;;;;;;;14.23;57.04;100121.22;4470647;31;34411;-84
2024/03/17 00:06:06;;;;;;;0.00;0.00;;;;;;;14.35;56.75;100131.19;4473178;31;33110;-84
2024/03/17 00:08:32;;;;;;;0.00;0.00;;;;;;;14.41;56.56;100130.84;4472539;31;32589;-84
2024/03/17 00:10:59;;;;;;;0.28;0.28;;;;;;;14.31;56.90;100122.53;4470440;31;32892;-84
2024/03/17 00:13:26;;;;;;;0.95;0.45;;;;;;;14.59;56.17;100119.25;4468353;31;32368;-84
2024/03/17 00:15:52;;;;;;;0.25;0.20;;;;;;;14.49;56.22;100127.81;4481519;31;33751;-84
2024/03/17 00:18:19;;;;;;;0.10;0.10;;;;;;;14.54;55.94;100128.44;4442976;31;34394;-84
2024/03/17 00:20:46;;;;;;;0.20;0.20;;;;;;;14.49;55.96;100128.69;4472880;31;33255;-84
2024/03/17 00:23:12;;;;;;;0.00;0.00;;;;;;;14.34;56.35;100129.47;4470997;31;32828;-84
2024/03/17 00:25:40;;;;;;;0.65;0.52;;;;;;;14.35;56.51;100131.19;4454291;31;34594;-84
2024/03/17 00:28:06;;;;;;;0.00;0.00;;;;;;;14.42;56.24;100132.56;4485271;31;34072;-84
2024/03/17 00:30:33;;;;;;;0.00;0.00;;;;;;;14.50;56.00;100138.34;4470839;31;32682;-84
2024/03/17 00:33:00;;;;;;;0.00;0.00;;;;;;;14.31;56.71;100138.47;4474564;31;33664;-83
2024/03/17 00:35:27;;;;;;;0.10;0.10;;;;;;;14.56;55.81;100138.00;4482825;31;33912;-83
2024/03/17 00:37:53;;;;;;;0.10;0.10;;;;;;;14.52;55.81;100139.13;4470837;31;34445;-82
2024/03/17 00:40:21;;;;;;;0.00;0.00;;;;;;;14.72;55.16;100132.72;4444436;31;32205;-82
2024/03/17 00:42:48;;;;;;;0.00;0.00;;;;;;;14.66;55.14;100137.50;4474466;31;35027;-83
2024/03/17 00:45:15;;;;;;;0.15;0.10;;;;;;;14.66;55.09;100129.53;4487413;31;33890;-83
2024/03/17 00:47:43;;;;;;;0.60;0.40;;;;;;;14.35;56.16;100141.81;4462204;31;34217;-82
2024/03/17 00:50:11;;;;;;;0.00;0.00;;;;;;;14.30;56.30;100138.56;4475684;31;33789;-82
2024/03/17 00:52:38;;;;;;;0.10;0.10;;;;;;;14.30;56.52;100154.50;4485104;31;34816;-82
2024/03/17 00:55:06;;;;;;;0.00;0.00;;;;;;;14.38;55.80;100144.28;4460310;31;33246;-82
2024/03/17 00:57:33;;;;;;;0.10;0.10;;;;;;;14.27;56.38;100144.03;4490038;31;34489;-82
2024/03/17 00:59:59;;;;;;;0.00;0.00;;;;;;;14.23;56.34;100143.31;4480269;31;33271;-82
2024/03/17 01:02:26;;;;;;;0.13;0.05;;;;;;;14.20;56.29;100142.66;4462210;31;33583;-82
2024/03/17 01:04:53;;;;;;;0.08;0.08;;;;;;;13.89;57.25;100146.03;4454015;31;33070;-83
2024/03/17 01:07:19;;;;;;;0.20;0.20;;;;;;;13.72;57.83;100152.19;4490785;31;34565;-83
2024/03/17 01:09:49;;;;;;;0.00;0.00;;;;;;;13.90;57.30;100143.28;4471025;31;33028;-83
2024/03/17 01:12:16;;;;;;;0.00;0.00;;;;;;;13.94;57.04;100142.19;4477829;31;33349;-83
2024/03/17 01:14:42;;;;;;;0.13;0.13;;;;;;;13.96;57.12;100135.03;4460483;31;33561;-83
2024/03/17 01:17:09;;;;;;;0.00;0.00;;;;;;;14.01;56.61;100132.13;4464038;31;34664;-83
2024/03/17 01:19:36;;;;;;;0.68;0.15;;;;;;;14.05;56.79;100131.00;4472871;31;33023;-83
2024/03/17 01:22:02;;;;;;;0.00;0.00;;;;;;;14.00;57.19;100131.25;4481402;31;33965;-83
2024/03/17 01:24:33;;;;;;;0.00;0.00;;;;;;;14.07;56.64;100132.66;4455999;31;33620;-83
2024/03/17 01:27:01;;;;;;;0.00;0.00;;;;;;;14.14;56.28;100129.66;4486418;31;33599;-83
2024/03/17 01:29:28;;;;;;;0.00;0.00;;;;;;;14.34;56.05;100140.12;4466760;31;32962;-83
2024/03/17 01:31:55;;;;;;;2.28;0.30;;;;;;;13.75;57.61;100131.69;4490708;31;34048;-82
2024/03/17 01:34:22;;;;;;;0.00;0.00;;;;;;;13.85;57.07;100124.09;4461627;31;33126;-81
2024/03/17 01:36:48;;;;;;;0.00;0.00;;;;;;;13.82;57.54;100125.13;4464227;31;33186;-82
2024/03/17 01:39:17;;;;;;;0.10;0.00;;;;;;;13.78;57.52;100128.87;4464382;31;32140;-82
2024/03/17 01:41:43;;;;;;;1.52;0.10;;;;;;;13.92;57.08;100125.50;4471949;31;32482;-81
2024/03/17 01:44:24;;;;;;;0.43;0.32;;;;;;;13.97;56.90;100130.56;4465576;31;33224;-81
2024/03/17 01:46:51;;;;;;;0.00;0.00;;;;;;;13.81;57.62;100135.81;4479932;31;34428;-81
2024/03/17 01:49:18;;;;;;;0.88;0.17;;;;;;;13.78;57.27;100131.53;4481831;31;31682;-81
2024/03/17 01:51:45;;;;;;;0.00;0.00;;;;;;;13.79;57.29;100125.28;4471976;31;33324;-82
2024/03/17 01:54:13;;;;;;;0.00;0.00;;;;;;;13.77;57.59;100128.97;4485401;31;33921;-82
2024/03/17 01:56:39;;;;;;;0.50;0.50;;;;;;;13.64;57.94;100133.19;4485378;31;33721;-82
2024/03/17 01:59:09;;;;;;;0.10;0.10;;;;;;;13.66;57.77;100142.75;4471956;31;32554;-82
2024/03/17 02:01:36;;;;;;;0.00;0.00;;;;;;;13.50;58.78;100149.78;4480041;31;34242;-82
2024/03/17 02:04:05;;;;;;;0.37;0.20;;;;;;;13.76;57.68;100141.34;4470590;31;32958;-82
2024/03/17 02:06:31;;;;;;;0.00;0.00;;;;;;;13.49;58.63;100143.62;4485118;31;34050;-82
2024/03/17 02:08:58;;;;;;;0.30;0.30;;;;;;;13.34;59.28;100155.00;4479487;31;33406;-82
2024/03/17 02:11:32;;;;;;;3.20;2.08;;;;;;;13.52;58.94;100142.59;4475952;31;33816;-82
2024/03/17 02:13:59;;;;;;;0.00;0.00;;;;;;;13.37;59.22;100162.78;4478489;31;34095;-82
2024/03/17 02:16:26;;;;;;;0.00;0.00;;;;;;;13.57;58.42;100154.69;4470795;31;33655;-82
2024/03/17 02:18:56;;;;;;;0.22;0.22;;;;;;;13.35;59.53;100154.06;4485078;31;34065;-82
2024/03/17 02:21:24;;;;;;;1.30;0.45;;;;;;;13.53;58.88;100155.81;4475806;31;32453;-81
2024/03/17 02:23:52;;;;;;;0.25;0.20;;;;;;;13.24;59.64;100162.53;4471263;31;33054;-83
2024/03/17 02:26:19;;;;;;;0.00;0.00;;;;;;;13.37;59.19;100167.25;4469081;31;32240;-83
2024/03/17 02:28:46;;;;;;;0.10;0.10;;;;;;;13.52;58.87;100155.87;4471581;31;31861;-83
2024/03/17 02:31:15;;;;;;;0.10;0.10;;;;;;;13.42;59.16;100171.38;4471665;31;35006;-83
2024/03/17 02:33:43;;;;;;;0.00;0.00;;;;;;;13.55;58.64;100161.88;4483235;31;33652;-83
2024/03/17 02:36:11;;;;;;;0.00;0.00;;;;;;;13.01;60.56;100170.72;4469475;31;33338;-83
2024/03/17 02:41:28;;;;;;;0.00;0.00;;;;;;;13.11;60.41;100173.81;4479332;31;33376;-81
2024/03/17 02:43:55;;;;;;;0.00;0.00;;;;;;;12.97;60.96;100163.84;4473140;31;34076;-82
2024/03/17 02:46:23;;;;;;;1.75;0.47;;;;;;;13.11;60.15;100169.34;4488362;31;33521;-82
2024/03/17 02:48:53;;;;;;;0.45;0.10;;;;;;;13.19;60.08;100166.31;4474920;31;32714;-82
2024/03/17 02:51:22;;;;;;;0.47;0.30;;;;;;;13.31;59.95;100165.75;4463604;31;33216;-82
2024/03/17 02:53:49;;;;;;;7.35;0.75;;;;;;;13.38;59.65;100169.81;4474138;31;35187;-83
2024/03/17 02:56:17;;;;;;;0.10;0.00;;;;;;;13.20;60.49;100162.75;4470729;31;33512;-83
2024/03/17 02:58:51;;;;;;;0.13;0.13;;;;;;;13.12;60.27;100157.81;4475607;31;33023;-83
2024/03/17 03:01:19;;;;;;;0.10;0.10;;;;;;;12.86;61.26;100160.84;4477502;31;33170;-83
2024/03/17 03:03:46;;;;;;;0.10;0.05;;;;;;;13.48;59.31;100152.53;4458823;31;34333;-83
2024/03/17 03:06:13;;;;;;;0.00;0.00;;;;;;;13.49;59.16;100167.50;4462158;31;33020;-83
2024/03/17 03:08:41;;;;;;;0.40;0.40;;;;;;;13.64;58.35;100167.69;4494480;31;32104;-83
2024/03/17 03:11:10;;;;;;;0.08;0.08;;;;;;;13.45;59.20;100181.00;4483013;31;33162;-83
2024/03/17 03:13:39;;;;;;;0.00;0.00;;;;;;;13.10;60.44;100190.63;4478591;31;33616;-82
2024/03/17 03:16:10;;;;;;;0.00;0.00;;;;;;;12.99;60.68;100180.53;4478739;31;33615;-83
2024/03/17 03:18:41;;;;;;;0.00;0.00;;;;;;;13.25;59.56;100196.09;4484122;31;34060;-83
2024/03/17 03:21:08;;;;;;;0.03;0.03;;;;;;;13.51;59.03;100191.28;4481860;31;33857;-83
2024/03/17 03:23:34;;;;;;;0.15;0.15;;;;;;;13.13;59.91;100198.44;4476139;31;32534;-83
2024/03/17 03:26:02;;;;;;;0.22;0.22;;;;;;;12.72;61.30;100203.88;4477655;31;33310;-85
2024/03/17 03:28:31;;;;;;;0.17;0.17;;;;;;;13.25;59.62;100208.50;4476574;31;33112;-85
2024/03/17 03:30:57;;;;;;;0.32;0.32;;;;;;;13.22;59.39;100196.22;4465856;31;33522;-84
2024/03/17 03:33:24;;;;;;;0.10;0.10;;;;;;;13.06;60.03;100189.94;4481242;31;33428;-85
2024/03/17 03:35:51;;;;;;;0.25;0.25;;;;;;;13.06;60.18;100185.47;4464792;31;32756;-85
2024/03/17 03:38:18;;;;;;;0.00;0.00;;;;;;;13.16;59.63;100191.19;4488201;31;32842;-84
2024/03/17 03:40:47;;;;;;;0.00;0.00;;;;;;;12.96;60.08;100205.41;4452104;31;34556;-84
2024/03/17 03:43:14;;;;;;;0.00;0.00;;;;;;;13.23;59.13;100213.00;4464767;31;33419;-84
2024/03/17 03:45:41;;;;;;;0.00;0.00;;;;;;;13.10;59.46;100214.47;4473565;31;32800;-83
2024/03/17 03:48:08;;;;;;;0.00;0.00;;;;;;;13.13;59.08;100212.53;4465385;31;34473;-83
2024/03/17 03:50:35;;;;;;;0.00;0.00;;;;;;;12.57;60.55;100224.84;4488141;31;32260;-83
2024/03/17 03:53:01;;;;;;;0.00;0.00;;;;;;;12.60;60.49;100225.66;4471394;31;34154;-83
2024/03/17 03:55:29;;;;;;;0.00;0.00;;;;;;;12.45;60.69;100228.06;4485917;31;32580;-83
2024/03/17 03:57:55;;;;;;;0.03;0.03;;;;;;;12.64;60.13;100224.59;4481926;31;33445;-83
2024/03/17 04:00:22;;;;;;;0.00;0.00;;;;;;;12.32;60.79;100239.25;4457073;31;32716;-83
2024/03/17 04:02:50;;;;;;;0.10;0.10;;;;;;;12.59;59.46;100231.88;4478740;31;33409;-82
2024/03/17 04:05:18;;;;;;;0.25;0.25;;;;;;;12.60;59.32;100239.75;4462937;31;32877;-82
2024/03/17 04:07:46;;;;;;;0.00;0.00;;;;;;;12.42;59.20;100236.13;4467414;31;31933;-83
2024/03/17 04:10:13;;;;;;;0.32;0.32;;;;;;;12.47;59.31;100249.16;4470928;31;34002;-84
2024/03/17 04:12:40;;;;;;;0.55;0.55;;;;;;;12.42;59.18;100246.72;4470587;31;32326;-84
2024/03/17 04:15:07;;;;;;;0.90;0.90;;;;;;;12.42;59.26;100246.72;4474255;31;34343;-85
2024/03/17 04:17:33;;;;;;;0.00;0.00;;;;;;;12.51;58.38;100256.91;4472195;31;33737;-85
2024/03/17 04:20:00;;;;;;;0.10;0.10;;;;;;;12.39;58.30;100253.94;4469803;31;32090;-85
2024/03/17 04:22:28;;;;;;;0.20;0.20;;;;;;;12.37;58.72;100254.00;4469141;31;33827;-85
2024/03/17 04:24:57;;;;;;;0.47;0.37;;;;;;;12.40;58.19;100245.09;4467716;31;32999;-85
2024/03/17 04:27:23;;;;;;;0.00;0.00;;;;;;;12.53;58.21;100243.59;4466508;31;33214;-84
2024/03/17 04:29:52;;;;;;;1.70;0.28;;;;;;;12.33;58.61;100251.56;4484462;31;33082;-82
2024/03/17 04:32:19;;;;;;;0.20;0.20;;;;;;;11.86;60.25;100252.66;4471145;31;32584;-82
2024/03/17 04:34:46;;;;;;;0.08;0.08;;;;;;;12.02;59.81;100252.91;4471081;31;32766;-82
2024/03/17 04:37:13;;;;;;;0.00;0.00;;;;;;;12.21;59.08;100253.81;4487024;31;33954;-82
2024/03/17 04:39:42;;;;;;;0.40;0.40;;;;;;;11.94;59.90;100247.91;4470191;31;32344;-84
2024/03/17 04:42:09;;;;;;;0.13;0.13;;;;;;;11.68;60.47;100256.91;4471823;31;33966;-84
2024/03/17 04:44:36;;;;;;;0.00;0.00;;;;;;;11.79;59.75;100245.88;4480591;31;33696;-84
2024/03/17 04:47:06;;;;;;;0.10;0.10;;;;;;;12.01;58.93;100244.09;4463603;31;32414;-84
2024/03/17 04:49:37;;;;;;;0.70;0.62;;;;;;;12.10;58.63;100245.47;4469681;31;33088;-84
2024/03/17 04:52:04;;;;;;;0.62;0.62;;;;;;;11.93;59.18;100248.84;4479034;31;34072;-84
2024/03/17 04:54:34;;;;;;;0.20;0.20;;;;;;;12.12;58.17;100243.63;4468258;31;31977;-84
2024/03/17 04:57:01;;;;;;;0.75;0.75;;;;;;;12.02;58.35;100240.53;4471227;31;31954;-84
2024/03/17 04:59:28;;;;;;;0.70;0.45;;;;;;;11.61;59.74;100251.94;4447854;31;33849;-85
2024/03/17 05:01:54;;;;;;;0.00;0.00;;;;;;;11.50;58.73;100255.00;4471199;31;33021;-84
2024/03/17 05:04:21;;;;;;;0.85;0.65;;;;;;;11.57;58.45;100251.19;4481926;31;33428;-85
2024/03/17 05:06:51;;;;;;;0.00;0.00;;;;;;;11.31;57.90;100257.53;4469737;31;35265;-84
2024/03/17 05:09:18;;;;;;;0.52;0.20;;;;;;;11.21;57.92;100256.16;4485358;31;34670;-84
2024/03/17 05:11:45;;;;;;;0.00;0.00;;;;;;;11.63;56.93;100236.84;4488176;31;33625;-84
2024/03/17 05:14:11;;;;;;;0.52;0.52;;;;;;;11.49;56.50;100233.00;4458231;31;31993;-84
2024/03/17 05:16:38;;;;;;;0.00;0.00;;;;;;;11.65;55.53;100250.87;4486341;31;34333;-84
2024/03/17 05:19:06;;;;;;;0.98;0.55;;;;;;;11.42;55.10;100247.37;4483598;31;33576;-84
2024/03/17 05:21:33;;;;;;;0.35;0.35;;;;;;;11.51;53.83;100246.16;4461499;31;34346;-84
2024/03/17 05:24:02;;;;;;;0.08;0.05;;;;;;;11.35;53.28;100250.34;4480273;31;33661;-83
2024/03/17 05:26:30;;;;;;;0.37;0.20;;;;;;;11.30;52.76;100247.88;4462670;31;32742;-82
2024/03/17 05:28:59;;;;;;;0.22;0.22;;;;;;;11.37;52.70;100238.78;4453410;31;33387;-84
2024/03/17 05:31:25;;;;;;;1.05;0.28;;;;;;;10.79;53.45;100246.31;4478487;31;33900;-84
2024/03/17 05:33:52;;;;;;;0.22;0.17;;;;;;;10.89;52.77;100252.97;4473227;31;32818;-83
2024/03/17 05:36:21;;;;;;;1.05;0.05;;;;;;;11.02;52.43;100248.09;4482492;31;31903;-82
2024/03/17 05:38:48;;;;;;;0.00;0.00;;;;;;;10.75;52.71;100256.12;4466847;31;32593;-82
2024/03/17 05:41:14;;;;;;;0.93;0.90;;;;;;;10.69;53.41;100251.06;4464497;31;33556;-82
2024/03/17 05:43:42;;;;;;;0.35;0.25;;;;;;;10.83;52.49;100258.50;4485986;31;33842;-84
2024/03/17 05:46:10;;;;;;;0.00;0.00;;;;;;;10.74;52.29;100250.91;4471433;31;33216;-84
2024/03/17 05:48:39;;;;;;;0.00;0.00;;;;;;;10.72;52.22;100265.94;4471252;31;33701;-84
2024/03/17 05:51:06;;;;;;;0.17;0.14;;;;;;;10.66;53.23;100271.44;4457347;31;35806;-84
2024/03/17 05:53:33;;;;;;;0.10;0.10;;;;;;;10.70;52.82;100262.50;4484246;31;33727;-84
2024/03/17 05:56:01;;;;;;;0.00;0.00;;;;;;;10.75;53.05;100260.56;4471159;31;31891;-84
2024/03/17 05:58:28;;;;;;;0.00;0.00;;;;;;;11.37;51.41;100259.91;4474840;31;33323;-84
2024/03/17 06:00:55;;;;;;;0.28;0.28;;;;;;;11.26;50.91;100260.34;4469739;31;32966;-84
2024/03/17 06:03:22;;;;;;;0.65;0.45;;;;;;;10.76;51.99;100262.25;4473995;31;33146;-83
2024/03/17 06:05:48;;;;;;;0.10;0.10;;;;;;;10.46;52.70;100259.84;4481839;31;34093;-84
2024/03/17 06:08:15;;;;;;;0.10;0.10;;;;;;;10.57;52.92;100253.28;4474654;31;33659;-84
2024/03/17 06:10:44;;;;;;;0.00;0.00;;;;;;;10.62;52.70;100254.84;4459262;31;34599;-84
2024/03/17 06:13:15;;;;;;;0.15;0.15;;;;;;;10.87;51.83;100260.09;4478287;31;32749;-84
2024/03/17 06:15:41;;;;;;;0.28;0.28;;;;;;;10.51;52.98;100251.75;4464596;31;31932;-84
2024/03/17 06:18:12;;;;;;;0.10;0.10;;;;;;;10.54;53.14;100250.75;4463564;31;33742;-84
2024/03/17 06:20:42;;;;;;;0.65;0.60;;;;;;;10.54;53.19;100256.03;4468720;31;33523;-84
2024/03/17 06:23:09;;;;;;;0.10;0.10;;;;;;;10.90;52.27;100254.69;4458842;31;33916;-84
2024/03/17 06:25:44;;;;;;;6.97;1.23;;;;;;;10.81;52.21;100260.31;4467851;31;32167;-84
2024/03/17 06:28:14;;;;;;;0.00;0.00;;;;;;;10.62;53.07;100254.00;4471824;31;34320;-84
2024/03/17 06:30:44;;;;;;;0.03;0.03;;;;;;;10.74;52.87;100254.41;4476241;31;34029;-84
2024/03/17 06:33:12;;;;;;;0.00;0.00;;;;;;;10.99;51.66;100264.06;4470582;31;34343;-84
2024/03/17 06:35:39;;;;;;;0.25;0.25;;;;;;;10.92;52.62;100276.66;4473194;31;32832;-84
2024/03/17 06:38:09;;;;;;;0.20;0.20;;;;;;;10.65;52.77;100280.28;4481598;31;33846;-84
2024/03/17 06:40:37;;;;;;;0.00;0.00;;;;;;;10.99;52.10;100283.41;4443352;31;34603;-84
2024/03/17 06:43:04;;;;;;;0.00;0.00;;;;;;;11.13;51.67;100272.31;4468339;31;33467;-84
2024/03/17 06:45:31;;;;;;;0.10;0.10;;;;;;;10.79;52.57;100277.16;4473199;31;32198;-84
2024/03/17 06:47:58;;;;;;;0.55;0.43;;;;;;;10.96;52.56;100286.16;4460617;31;34584;-84
2024/03/17 06:50:24;;;;;;;0.90;0.57;;;;;;;11.11;51.48;100290.03;4478016;31;33739;-85
2024/03/17 06:52:52;;;;;;;0.00;0.00;;;;;;;11.12;51.60;100285.59;4484709;31;33450;-85
2024/03/17 06:55:21;;;;;;;0.22;0.22;;;;;;;11.26;51.22;100293.84;4453643;31;33350;-84
2024/03/17 06:57:47;;;;;;;0.52;0.32;;;;;;;11.21;51.05;100290.53;4477414;31;33665;-85
2024/03/17 07:00:16;;;;;;;0.75;0.75;;;;;;;10.79;52.20;100295.66;4472615;31;33894;-85
2024/03/17 07:02:44;;;;;;;0.40;0.40;;;;;;;10.69;51.78;100288.06;4483138;31;34486;-85
2024/03/17 07:05:14;;;;;;;0.20;0.20;;;;;;;11.20;50.77;100294.06;4475272;32;32695;-85
2024/03/17 07:07:44;;;;;;;0.05;0.03;;;;;;;11.76;49.38;100306.84;4473411;31;32260;-85
2024/03/17 07:10:11;;;;;;;0.25;0.25;;;;;;;11.86;48.73;100310.88;4482577;31;34884;-84
2024/03/17 07:12:38;;;;;;;0.52;0.25;;;;;;;11.73;49.07;100312.28;4470675;31;32774;-84
2024/03/17 07:15:05;;;;;;;7.32;0.75;;;;;;;11.98;48.41;100326.25;4468803;31;33884;-84
2024/03/17 07:17:33;;;;;;;0.17;0.17;;;;;;;11.81;48.33;100328.69;4445682;31;35472;-84
2024/03/17 07:20:00;;;;;;;0.00;0.00;;;;;;;11.91;48.02;100313.31;4467729;31;33899;-84
2024/03/17 07:22:28;;;;;;;0.57;0.55;;;;;;;11.76;48.73;100322.72;4473470;31;33185;-84
2024/03/17 07:25:00;;;;;;;0.10;0.10;;;;;;;11.84;48.36;100323.31;4464387;31;33211;-84
2024/03/17 07:27:27;;;;;;;0.20;0.20;;;;;;;11.92;48.63;100325.66;4456267;31;33294;-84
2024/03/17 07:29:53;;;;;;;0.00;0.00;;;;;;;11.83;47.64;100326.03;4473272;31;32760;-84
2024/03/17 07:32:22;;;;;;;2.97;0.85;;;;;;;12.21;46.30;100312.06;4473029;31;32856;-83
2024/03/17 07:34:52;;;;;;;0.00;0.00;;;;;;;11.71;47.61;100327.34;4472363;31;31572;-84
2024/03/17 07:37:19;;;;;;;0.00;0.00;;;;;;;12.24;46.35;100326.94;4467274;31;34313;-83
2024/03/17 07:39:49;;;;;;;0.00;0.00;;;;;;;12.57;45.77;100320.19;4464806;31;33065;-83
2024/03/17 07:42:16;;;;;;;0.35;0.10;;;;;;;12.89;44.54;100331.19;4487827;31;33526;-83
2024/03/17 07:44:45;;;;;;;0.32;0.32;;;;;;;12.71;44.91;100330.19;4482368;31;33756;-83
2024/03/17 07:47:12;;;;;;;0.00;0.00;;;;;;;12.73;44.80;100330.16;4454837;31;34473;-82
2024/03/17 07:49:38;;;;;;;0.00;0.00;;;;;;;12.76;45.36;100335.28;4475436;31;32645;-83
2024/03/17 07:52:06;;;;;;;0.10;0.10;;;;;;;12.93;45.57;100353.13;4470952;31;33180;-84
2024/03/17 07:54:35;;;;;;;0.10;0.00;;;;;;;12.60;45.82;100355.47;4451853;31;34286;-81
2024/03/17 07:57:01;;;;;;;0.35;0.35;;;;;;;12.82;44.71;100341.22;4489125;31;34617;-81
2024/03/17 07:59:29;;;;;;;0.20;0.20;;;;;;;13.29;43.79;100345.28;4460994;31;33737;-81
2024/03/17 08:01:57;;;;;;;0.20;0.20;;;;;;;13.26;44.29;100345.47;4479680;31;34612;-81
2024/03/17 08:04:24;;;;;;;0.30;0.30;;;;;;;13.34;44.20;100348.63;4459042;31;31984;-81
2024/03/17 08:06:50;;;;;;;1.55;1.45;;;;;;;12.77;45.27;100352.91;4490726;31;33560;-81
2024/03/17 08:09:18;;;;;;;0.37;0.37;;;;;;;13.32;43.24;100347.81;4462149;31;31847;-82
2024/03/17 08:11:46;;;;;;;0.55;0.55;;;;;;;12.93;44.38;100334.56;4456042;31;34054;-81
2024/03/17 08:14:14;;;;;;;1.40;0.65;;;;;;;13.09;44.31;100338.22;4461745;32;31725;-82
2024/03/17 08:16:41;;;;;;;0.22;0.22;;;;;;;13.18;44.29;100358.16;4472477;31;33687;-82
2024/03/17 08:19:08;;;;;;;0.00;0.00;;;;;;;12.72;43.99;100349.59;4457085;31;35131;-81
2024/03/17 08:21:35;;;;;;;0.13;0.13;;;;;;;13.45;42.88;100351.63;4469183;32;32596;-81
2024/03/17 08:24:01;;;;;;;2.30;0.88;;;;;;;13.55;42.99;100346.75;4464426;31;32874;-81
2024/03/17 08:26:30;;;;;;;0.10;0.10;;;;;;;13.78;42.55;100353.62;4467802;31;33554;-81
2024/03/17 08:28:57;;;;;;;0.20;0.20;;;;;;;13.69;42.39;100365.53;4462078;31;33441;-81
2024/03/17 08:31:25;;;;;;;0.50;0.50;;;;;;;13.64;43.06;100372.00;4467216;31;33732;-81
2024/03/17 08:33:52;;;;;;;0.00;0.00;;;;;;;13.49;43.34;100369.13;4470612;31;33495;-81
2024/03/17 08:36:20;;;;;;;0.40;0.22;;;;;;;13.53;40.91;100376.03;4459007;31;33953;-81
2024/03/17 08:38:47;;;;;;;0.00;0.00;;;;;;;13.63;41.76;100380.91;4469101;31;33822;-81
2024/03/17 08:41:15;;;;;;;0.05;0.05;;;;;;;13.92;41.15;100380.34;4468997;31;32727;-81
2024/03/17 08:43:43;;;;;;;0.00;0.00;;;;;;;13.55;40.66;100373.28;4470974;31;33707;-81
2024/03/17 08:46:10;;;;;;;0.00;0.00;;;;;;;13.47;39.04;100370.97;4458278;31;32557;-81
2024/03/17 08:48:38;;;;;;;0.77;0.77;;;;;;;13.34;39.97;100375.16;4464724;31;35030;-80
2024/03/17 08:51:06;;;;;;;0.00;0.00;;;;;;;13.05;40.79;100379.94;4484095;31;33212;-81
2024/03/17 08:53:33;;;;;;;0.00;0.00;;;;;;;13.17;40.31;100390.91;4468144;31;33514;-81
2024/03/17 08:56:00;;;;;;;0.00;0.00;;;;;;;13.11;41.10;100381.47;4445556;31;35049;-81
2024/03/17 08:58:27;;;;;;;1.00;0.32;;;;;;;13.30;39.98;100378.88;4462443;31;32741;-82
2024/03/17 09:00:53;;;;;;;0.57;0.57;;;;;;;13.27;40.71;100379.84;4479608;31;33741;-81
2024/03/17 09:03:20;;;;;;;0.10;0.10;;;;;;;13.82;38.83;100374.62;4487040;31;33331;-81
2024/03/17 09:05:47;;;;;;;0.20;0.20;;;;;;;13.64;38.97;100377.31;4467926;31;32813;-81
2024/03/17 09:08:21;;;;;;;12.80;0.43;;;;;;;14.00;38.27;100372.84;4469522;31;33332;-80
2024/03/17 09:10:50;;;;;;;0.43;0.10;;;;;;;13.87;38.89;100377.06;4469787;31;33935;-81
2024/03/17 09:13:18;;;;;;;0.00;0.00;;;;;;;13.43;38.91;100376.50;4474761;31;31509;-81
2024/03/17 09:15:59;;;;;;;0.47;0.30;;;;;;;13.54;37.61;100377.72;4471210;31;33889;-80
2024/03/17 09:18:30;;;;;;;0.00;0.00;;;;;;;13.22;38.75;100376.56;4491224;31;36533;-81
2024/03/17 09:21:01;;;;;;;0.00;0.00;;;;;;;13.52;38.59;100379.56;4483455;31;33423;-81
2024/03/17 09:23:28;;;;;;;0.00;0.00;;;;;;;13.61;38.94;100366.81;4487989;31;33817;-81
2024/03/17 09:26:00;;;;;;;0.00;0.00;;;;;;;13.55;38.23;100379.44;4472634;31;33164;-81
2024/03/17 09:28:28;;;;;;;0.30;0.20;;;;;;;13.74;37.59;100370.62;4472066;31;33255;-81
2024/03/17 09:30:55;;;;;;;0.10;0.10;;;;;;;13.78;36.53;100369.53;4463772;31;33068;-81
2024/03/17 09:33:23;;;;;;;0.10;0.10;;;;;;;13.86;36.21;100366.50;4468741;31;32400;-81
2024/03/17 09:36:00;;;;;;;0.20;0.03;;;;;;;14.06;36.30;100367.28;4471746;31;34539;-82
2024/03/17 09:38:30;;;;;;;0.10;0.10;;;;;;;13.96;37.53;100366.00;4484623;31;33246;-80
2024/03/17 09:40:57;;;;;;;0.00;0.00;;;;;;;13.35;38.54;100371.56;4474932;31;33877;-81
2024/03/17 09:43:27;;;;;;;0.05;0.05;;;;;;;14.29;36.72;100362.59;4474518;31;33021;-81
2024/03/17 09:45:57;;;;;;;0.10;0.10;;;;;;;14.36;37.52;100358.72;4472518;31;34028;-80
2024/03/17 09:48:27;;;;;;;0.00;0.00;;;;;;;14.45;36.13;100362.72;4472137;31;33882;-81
2024/03/17 09:50:55;;;;;;;0.28;0.28;;;;;;;14.53;35.33;100364.06;4470575;31;34556;-81
2024/03/17 09:53:29;;;;;;;0.85;0.40;;;;;;;14.76;35.24;100362.00;4453321;31;33254;-81
2024/03/17 09:56:04;;;;;;;0.00;0.00;;;;;;;15.09;35.84;100368.19;4467856;31;32354;-81
2024/03/17 09:58:30;;;;;;;0.03;0.03;;;;;;;14.96;35.53;100367.16;4470543;31;33728;-81
2024/03/17 10:00:57;;;;;;;0.00;0.00;;;;;;;14.85;35.43;100366.84;4483335;31;33377;-81
2024/03/17 10:03:55;;;;;;;0.20;0.20;;;;;;;14.74;35.38;100364.75;4480212;31;33307;-81
2024/03/17 10:06:23;;;;;;;0.00;0.00;;;;;;;14.62;35.11;100367.19;4481322;31;33147;-80
2024/03/17 10:08:52;;;;;;;0.03;0.03;;;;;;;14.52;35.00;100365.00;4468950;31;32208;-80
2024/03/17 10:11:40;;;;;;;0.75;0.47;;;;;;;14.53;34.89;100358.75;4462114;31;32596;-80
2024/03/17 10:14:10;;;;;;;0.00;0.00;;;;;;;14.59;34.72;100353.13;4482736;31;32642;-81
2024/03/17 10:16:38;;;;;;;0.28;0.13;;;;;;;14.42;35.58;100360.19;4462390;31;32578;-81
2024/03/17 10:19:13;;;;;;;0.00;0.00;;;;;;;14.88;34.31;100349.88;4481514;31;33295;-80
2024/03/17 10:21:47;;;;;;;0.05;0.05;;;;;;;14.81;34.71;100350.22;4474485;31;33374;-80
2024/03/17 10:24:18;;;;;;;0.98;0.47;;;;;;;14.49;35.47;100349.22;4478424;31;32499;-80
2024/03/17 10:26:49;;;;;;;0.50;0.50;;;;;;;14.87;35.13;100341.06;4483751;31;33517;-81
2024/03/17 10:29:26;;;;;;;0.85;0.82;;;;;;;15.33;35.05;100327.91;4477520;31;33287;-81
2024/03/17 10:32:03;;;;;;;0.70;0.70;;;;;;;15.53;34.34;100330.34;4465607;31;32502;-81
2024/03/17 10:34:40;;;;;;;0.32;0.30;;;;;;;15.52;34.26;100331.28;4465400;32;32770;-81
2024/03/17 10:37:17;;;;;;;0.28;0.28;;;;;;;15.50;33.00;100319.88;4483936;31;34564;-81
2024/03/17 10:39:44;;;;;;;0.10;0.10;;;;;;;16.02;33.60;100327.59;4466810;31;32602;-81
2024/03/17 10:42:13;;;;;;;1.00;0.43;;;;;;;15.62;31.79;100326.31;4469430;31;34437;-81
2024/03/17 10:44:45;;;;;;;0.08;0.08;;;;;;;15.84;31.65;100310.00;4477469;31;31880;-81
2024/03/17 10:47:23;;;;;;;0.00;0.00;;;;;;;16.00;31.28;100308.19;4471820;31;33522;-81
2024/03/17 10:49:51;;;;;;;12.40;0.52;;;;;;;15.83;30.53;100294.97;4473560;31;33978;-81
2024/03/17 10:52:18;;;;;;;0.28;0.28;;;;;;;15.65;31.59;100312.00;4473031;31;32210;-81
2024/03/17 10:54:50;;;;;;;0.10;0.10;;;;;;;15.51;31.85;100310.09;4469872;31;32373;-81
2024/03/17 10:57:35;;;;;;;0.10;0.00;;;;;;;15.44;32.64;100304.25;4470115;31;33690;-85
2024/03/17 11:00:05;;;;;;;0.00;0.00;;;;;;;15.61;33.05;100306.81;4463648;31;34598;-81
2024/03/17 11:02:32;;;;;;;0.10;0.10;;;;;;;15.26;33.38;100318.56;4472328;31;33871;-81
2024/03/17 11:05:03;;;;;;;0.00;0.00;;;;;;;15.66;32.02;100300.41;4462608;31;33589;-80
2024/03/17 11:07:32;;;;;;;0.00;0.00;;;;;;;15.65;32.57;100296.88;4468126;31;33866;-81
2024/03/17 11:09:59;;;;;;;0.10;0.10;;;;;;;15.92;31.32;100293.59;4476876;31;34024;-81
2024/03/17 11:13:02;;;;;;;0.20;0.10;;;;;;;15.80;31.53;100292.47;4470870;31;33561;-81
2024/03/17 11:15:37;;;;;;;0.15;0.15;;;;;;;15.76;31.32;100293.59;4450647;32;33486;-80
2024/03/17 11:18:10;;;;;;;0.00;0.00;;;;;;;15.64;32.83;100294.31;4467212;31;33040;-80
2024/03/17 11:20:41;;;;;;;0.20;0.20;;;;;;;16.06;31.57;100296.31;4482099;31;33731;-80
2024/03/17 11:23:09;;;;;;;0.10;0.10;;;;;;;15.99;31.56;100305.59;4477692;31;34524;-80
2024/03/17 11:25:35;;;;;;;0.28;0.28;;;;;;;15.49;32.65;100306.66;4467163;31;33557;-80
2024/03/17 11:28:06;;;;;;;0.00;0.00;;;;;;;15.85;30.76;100295.75;4480335;31;34784;-81
2024/03/17 11:33:31;;;;;;;0.10;0.10;;;;;;;15.90;32.93;100291.00;4490939;31;33770;-80
2024/03/17 11:36:20;;;;;;;0.00;0.00;;;;;;;16.18;31.00;100298.25;4483411;31;33010;-81